Terminal Aerodrome Forecast
Issued by NWS

Home | Current Version | Previous Version | Graphics & Text | Print | Product List | Glossary On
Versions: 1 2 3 4 5 6 7 8 9 10 11 12 13 14
000
FTUS43 KIWX 182339
TAFSBN
TAF
KSBN 182339Z 1900/1924 25003KT P6SM SCT050
     FM191400 27007KT P6SM SCT045 BKN100
     FM192300 31006KT P6SM SCT050 BKN120=

USA.gov is the U.S. government's official web portal to all federal, state and local government web resources and services.